utilisation pie
utilisation bar
humidity graph
temperature graph
Station id: aae83c for 3 days

start:   stop:  

day time in temp out temp in RH out RH H quota rule action
2021-11-25 00:16:26 9.2 6.6 65 92 118 h 0
2021-11-25 00:46:38 9.2 6.7 66 92 118 h 0
2021-11-25 01:16:51 9.1 6.7 66 91 118 h 0
2021-11-25 01:47:19 0.0 6.8 0 91 100 e 0
2021-11-25 02:17:31 9.1 6.9 66 90 118 h 0
2021-11-25 02:47:43 9.6 7.0 65 90 118 h 0
2021-11-25 03:17:55 10.2 7.0 63 89 115 h 0
2021-11-25 03:48:07 9.8 7.0 64 89 117 h 0
2021-11-25 04:18:20 9.5 6.9 64 89 117 h 0
2021-11-25 04:48:33 9.4 6.8 65 89 116 h 0
2021-11-25 05:18:45 9.2 7.1 65 89 118 h 0
2021-11-25 05:48:57 9.1 7.2 66 89 119 h 0
2021-11-25 06:19:09 9.0 7.3 66 89 120 h 0
2021-11-25 06:49:28 9.0 7.3 66 89 120 h 0
2021-11-25 07:19:40 8.9 7.2 66 89 120 h 0
2021-11-25 07:49:52 8.9 7.1 66 90 121 h 0
2021-11-25 08:20:05 8.8 7.1 68 90 119 h 0
2021-11-25 08:50:17 8.8 7.0 68 89 116 h 0
2021-11-25 09:20:29 9.6 7.1 65 89 116 h 0
2021-11-25 09:50:41 9.7 7.0 65 87 113 h 0
2021-11-25 10:20:53 9.4 6.9 66 87 112 h 0
2021-11-25 10:51:06 10.5 6.8 68 87 100 h 0
2021-11-25 11:21:18 0.0 6.8 0 88 100 e 0
2021-11-25 11:51:30 0.0 6.8 0 88 100 e 0
2021-11-25 12:21:43 11.1 6.7 67 87 98 h 0
2021-11-25 12:51:55 11.1 6.6 67 85 95 h 0
2021-11-25 13:22:07 11.1 6.3 66 84 93 t
1
2021-11-25 13:52:20 11.5 6.0 63 84 94 t
1
2021-11-25 14:22:32 11.0 5.7 63 84 95 h 0
2021-11-25 14:52:44 11.1 5.2 62 84 92 t
1
2021-11-25 15:22:56 10.4 4.9 63 85 94 h 0
2021-11-25 15:53:08 10.4 4.7 64 86 92 t
1
2021-11-25 16:23:20 10.0 4.4 64 87 94 h 0
2021-11-25 16:53:32 10.0 4.1 64 87 91 t
1
2021-11-25 17:23:44 10.2 3.8 62 88 93 t
1
2021-11-25 17:53:56 10.2 3.3 60 87 91 t
1
2021-11-25 18:24:08 9.6 2.6 59 85 90 t
1
2021-11-25 18:54:21 9.1 2.0 59 83 87 t
1
2021-11-25 19:24:33 8.8 1.4 59 83 85 t
1
2021-11-25 19:54:45 8.5 1.0 59 84 85 t
1
2021-11-25 20:24:57 8.5 0.5 59 84 82 t
1
2021-11-25 20:55:09 8.3 0.1 58 84 82 t
1
2021-11-25 21:25:21 8.1 -0.2 58 84 82 t
1
2021-11-25 21:55:33 7.7 -0.5 58 85 83 t
1
2021-11-25 22:25:45 7.5 -0.8 57 85 84 t
1
2021-11-25 22:55:58 7.6 -1.1 58 85 81 t
1
2021-11-25 23:26:10 7.5 -1.4 57 85 80 t
1
2021-11-25 23:56:22 7.4 -1.7 57 85 79 t
1
2021-11-26 00:26:34 7.3 -2.0 56 86 80 t
1
2021-11-26 00:57:23 7.2 -2.2 56 86 79 t
1
2021-11-26 01:28:08 7.2 -2.5 56 86 78 t
1
2021-11-26 01:58:20 7.0 -2.6 55 86 79 t
1
2021-11-26 02:28:32 7.0 -2.7 55 87 80 t
1
2021-11-26 02:58:44 6.9 -2.8 55 86 79 t
1
2021-11-26 03:28:56 6.9 -2.8 55 86 80 t
1
2021-11-26 03:59:15 6.9 -2.9 54 86 80 t
1
2021-11-26 04:29:27 6.9 -3.1 53 86 80 t
1
2021-11-26 04:59:41 6.8 -3.3 53 86 79 t
1
2021-11-26 05:29:53 6.8 -3.4 53 86 79 t
1
2021-11-26 06:00:05 6.8 -3.6 52 86 79 t
1
2021-11-26 06:30:18 6.8 -3.9 52 87 78 t
1
2021-11-26 07:00:30 7.1 -4.0 51 87 79 t
1
2021-11-26 07:30:42 7.2 -4.2 50 87 78 g 0
2021-11-26 08:01:00 7.9 -4.4 51 88 72 t
1
2021-11-26 08:31:37 7.6 -4.3 50 88 76 g 0
2021-11-26 09:01:49 8.1 -4.1 51 89 73 t
1
2021-11-26 09:32:02 7.6 -3.7 50 89 80 g 0
2021-11-26 10:02:14 8.2 -3.3 51 89 77 t
1
2021-11-26 10:32:26 7.7 -2.9 50 88 83 t
1
2021-11-26 11:02:39 7.6 -2.5 50 88 87 g 0
2021-11-26 11:32:51 8.2 -1.9 51 87 84 t
1
2021-11-26 12:03:03 8.8 -1.3 45 86 95 h 0
2021-11-26 12:33:15 9.6 -1.1 46 85 90 g 0
2021-11-26 13:03:27 10.5 -1.2 44 85 88 g 0
2021-11-26 13:33:39 10.6 -1.2 47 85 82 g 0
2021-11-26 14:03:51 10.4 -1.3 49 85 78 g 0
2021-11-26 14:34:05 10.2 -1.4 50 85 77 g 0
2021-11-26 15:04:17 11.4 -1.6 47 85 75 g 0
2021-11-26 15:34:29 9.9 -1.9 51 85 74 t
1
2021-11-26 16:04:41 9.2 -2.2 50 85 77 t
1
2021-11-26 16:34:53 8.7 -2.4 49 86 82 g 0
2021-11-26 17:05:08 9.4 -2.5 42 86 90 g 0
2021-11-26 17:35:20 10.1 -2.7 40 86 89 g 0
2021-11-26 18:05:32 10.4 -2.8 43 87 81 g 0
2021-11-26 18:35:44 10.4 -2.8 45 87 77 g 0
2021-11-26 19:05:56 9.9 -2.9 47 87 75 g 0
2021-11-26 19:36:08 9.3 -3.2 50 87 73 g 0
2021-11-26 20:06:20 9.2 -3.5 51 87 71 t
1
2021-11-26 20:36:32 8.8 -3.8 49 87 74 g 0
2021-11-26 21:06:45 8.9 -4.0 50 88 71 t
1
2021-11-26 21:36:57 8.5 -4.1 48 88 76 g 0
2021-11-26 22:07:09 9.0 -4.2 49 88 71 g 0
2021-11-26 22:37:21 9.6 -4.4 48 88 68 g 0
2021-11-26 23:07:33 9.0 -4.6 50 89 68 t
1
2021-11-26 23:37:45 8.0 -4.7 49 89 74 g 0
2021-11-27 00:07:57 8.0 -4.7 51 89 71 t
1
2021-11-27 00:38:09 7.7 -4.7 50 89 74 g 0
2021-11-27 01:08:21 7.7 -4.8 51 89 72 t
1
2021-11-27 01:38:37 7.5 -4.9 49 89 75 g 0


2021-11-27 03:02:44 CET